• Join FlightAware (Why Join?)
  • Login
  • US Flag 
04:05AM EDT


 

Airport Tracker/Info


-or-


 

Live Flight TrackerFlight Track Log ✈ EJA681 ✈ 14-Jun-2013 ✈ KOMA - KOMA

Flight Track Log - Related Links

Times and Time Zones

All times are in EDT time to prevent confusion due to time zone crossing. See the EJA681 flight status page for this flight to view local times or setup timezone preferences in your user account.

Time Position Orientation Groundspeed Altitude Reporting Facility
EDT Latitude Longitude Course Direction KTS MPH feet Rate Location/Type
12:43PM 41.2947 -95.8864 145° Southeast 142 163 2,100  Level Minneapolis Center
12:44PM 41.2633 -95.8567 145° Southeast 190 219 4,500 2,460 Climbing Minneapolis Center
12:45PM 41.2517 -95.8394 132° Southeast 181 208 4,900 1,080 Climbing Minneapolis Center
12:45PM 41.2153 -95.7958 138° Southeast 262 302 5,600 1,320 Climbing Minneapolis Center
12:46PM 41.1994 -95.7764 137° Southeast 228 262 6,300 2,700 Climbing Minneapolis Center
12:46PM 41.1989 -95.7061 91° East 307 353 8,300 2,580 Climbing Minneapolis Center
12:47PM 41.2108 -95.6786 60° Northeast 280 322 9,000 1,920 Climbing Minneapolis Center
12:47PM 41.2569 -95.6383 33° Northeast 328 377 10,100 960 Climbing Minneapolis Center
12:48PM 41.2847 -95.6444 351° North 311 358 10,000  Descending Minneapolis Center
12:48PM 41.3314 -95.6850 327° Northwest 333 383 10,100  Climbing Minneapolis Center
12:49PM 41.3628 -95.7058 334° Northwest 322 371 10,000  Descending Minneapolis Center
12:49PM 41.4156 -95.7556 325° Northwest 334 384 10,100  Climbing Minneapolis Center
12:50PM 41.4556 -95.7825 333° Northwest 329 379 10,000  Descending Minneapolis Center
12:50PM 41.4867 -95.8167 321° Northwest 329 379 10,100  Climbing Minneapolis Center
12:51PM 41.5319 -95.8436 336° Northwest 328 377 10,000  Descending Minneapolis Center
12:51PM 41.5600 -95.8803 316° Northwest 243 280 10,100 -1,020 Climbing Minneapolis Center
12:52PM 41.5614 -95.9017 275° West 258 297 9,000 -2,640 Descending Minneapolis Center
12:52PM 41.5308 -95.9478 228° Southwest 221 254 7,200 -2,460 Descending Minneapolis Center
12:53PM 41.5214 -95.9458 171° South 247 284 6,500 -3,000 Descending Minneapolis Center
12:53PM 41.4792 -95.9872 216° Southwest 214 246 4,200 -3,120 Descending Minneapolis Center
12:54PM 41.4608 -95.9817 167° South 222 255 3,300 -1,140 Descending Minneapolis Center
12:54PM 41.4314 -95.9928 196° South 156 180 3,100 -420 Descending Minneapolis Center
12:55PM 41.4100 -95.9761 150° Southeast 174 200 2,900 -240 Descending Minneapolis Center
12:55PM 41.3947 -95.9775 184° South 108 124 2,900 -540 Level Minneapolis Center
12:56PM 41.3786 -95.9622 145° Southeast 141 162 2,400 -660 Descending Minneapolis Center
12:56PM 41.3619 -95.9533 158° South 124 143 2,200 -600 Descending Minneapolis Center
12:57PM 41.3500 -95.9369 134° Southeast 127 146 1,800 -660 Descending Minneapolis Center
12:58PM 41.3328 -95.9236 150° Southeast 124 143 1,500 -600 Descending Minneapolis Center
12:58PM 41.3225 -95.9083 132° Southeast 124 143 1,200 -720 Descending Minneapolis Center
01:00PM 41.3000 -95.8833 124° Southeast  Level FlightAware Approximate